createdAt,value
2022-10-11T00:00:07.061Z,73.56
2022-10-11T00:03:09.798Z,73.06
2022-10-11T00:06:13.141Z,72.31
2022-10-11T00:09:16.326Z,74.42
2022-10-11T00:12:19.315Z,74.28
2022-10-11T00:15:22.950Z,75.06
2022-10-11T00:18:26.157Z,75.22
2022-10-11T00:21:29.393Z,75.01
2022-10-11T00:24:32.379Z,75.24
2022-10-11T00:27:36.340Z,75.69
2022-10-11T00:30:43.349Z,76.38
2022-10-11T00:33:47.702Z,78.00
2022-10-11T00:36:50.679Z,78.07
2022-10-11T00:39:53.388Z,78.66
2022-10-11T00:42:56.344Z,78.48
2022-10-11T00:46:03.297Z,78.46
2022-10-11T00:49:19.417Z,77.96
2022-10-11T00:52:41.133Z,78.95
2022-10-11T00:55:51.878Z,79.12
2022-10-11T00:58:55.978Z,79.91
2022-10-11T01:01:58.974Z,79.69
2022-10-11T01:05:27.755Z,80.15
2022-10-11T01:08:26.043Z,80.60
2022-10-11T01:11:29.906Z,81.37
2022-10-11T01:15:06.499Z,81.76
2022-10-11T01:18:15.214Z,81.79
2022-10-11T01:21:37.031Z,81.68
2022-10-11T01:24:55.052Z,82.02
2022-10-11T01:27:57.967Z,81.94
2022-10-11T01:31:08.729Z,82.72
2022-10-11T01:34:27.117Z,82.75
2022-10-11T01:37:43.845Z,80.23
2022-10-11T01:40:57.153Z,79.82
2022-10-11T01:44:01.333Z,80.66
2022-10-11T01:47:05.742Z,81.44
2022-10-11T01:50:48.984Z,82.51
2022-10-11T01:54:13.991Z,82.83
2022-10-11T01:57:44.825Z,83.76
2022-10-11T02:01:05.922Z,85.29
2022-10-11T02:04:21.575Z,83.73
2022-10-11T02:07:31.850Z,83.44
2022-10-11T02:10:56.897Z,83.71
2022-10-11T02:14:16.397Z,83.92
2022-10-11T02:17:21.923Z,84.23
2022-10-11T02:20:25.370Z,84.61
2022-10-11T02:23:39.709Z,84.16
2022-10-11T02:26:44.861Z,84.26
2022-10-11T02:29:49.342Z,84.66
2022-10-11T02:32:53.109Z,84.88
2022-10-11T02:36:01.389Z,84.94
2022-10-11T02:39:11.132Z,84.52
2022-10-11T02:42:45.860Z,84.98
2022-10-11T02:45:52.091Z,85.02
2022-10-11T02:48:55.177Z,85.26
2022-10-11T02:51:59.490Z,85.21
2022-10-11T02:55:02.479Z,85.95
2022-10-11T02:58:05.192Z,85.53
2022-10-11T03:01:08.229Z,85.71
2022-10-11T03:04:11.113Z,85.50
2022-10-11T03:07:14.918Z,86.22
2022-10-11T03:10:17.676Z,85.89
2022-10-11T03:13:20.710Z,86.06
2022-10-11T03:16:23.487Z,86.29
2022-10-11T03:19:26.709Z,86.57
2022-10-11T03:22:29.408Z,86.34
2022-10-11T03:25:32.495Z,87.00
2022-10-11T03:28:36.111Z,87.20
2022-10-11T03:31:39.142Z,87.47
2022-10-11T03:34:41.906Z,87.72
2022-10-11T03:37:45.855Z,87.71
2022-10-11T03:40:48.558Z,87.64
2022-10-11T03:43:51.611Z,88.02
2022-10-11T03:46:54.321Z,88.58
2022-10-11T03:49:57.326Z,88.84
2022-10-11T03:53:00.238Z,88.81
2022-10-11T03:56:08.346Z,89.02
2022-10-11T03:59:11.441Z,89.09
2022-10-11T04:02:14.535Z,88.98
2022-10-11T04:05:17.675Z,87.36
2022-10-11T04:08:21.659Z,87.28
2022-10-11T04:11:24.681Z,88.28
2022-10-11T04:14:28.687Z,88.45
2022-10-11T04:17:31.922Z,88.72
2022-10-11T04:20:34.785Z,88.94
2022-10-11T04:23:37.793Z,89.27
2022-10-11T04:26:40.527Z,89.65
2022-10-11T04:29:43.829Z,89.61
2022-10-11T04:32:46.567Z,89.95
2022-10-11T04:35:49.562Z,89.91
2022-10-11T04:38:52.328Z,89.95
2022-10-11T04:41:55.571Z,90.80
2022-10-11T04:44:58.765Z,90.91
2022-10-11T04:48:02.164Z,89.99
2022-10-11T04:51:05.555Z,88.57
2022-10-11T04:54:08.552Z,89.23
2022-10-11T04:57:11.640Z,90.29
2022-10-11T05:00:15.289Z,90.14
2022-10-11T05:03:18.466Z,90.56
2022-10-11T05:06:21.474Z,91.09
2022-10-11T05:09:24.227Z,90.32
2022-10-11T05:12:27.236Z,90.28
2022-10-11T05:15:29.915Z,91.20
2022-10-11T05:18:33.065Z,90.74
2022-10-11T05:21:35.786Z,91.33
2022-10-11T05:24:38.768Z,91.67
2022-10-11T05:27:41.918Z,91.19
2022-10-11T05:30:44.909Z,90.85
2022-10-11T05:33:47.729Z,91.35
2022-10-11T05:36:50.726Z,91.71
2022-10-11T05:39:54.057Z,91.00
2022-10-11T05:42:57.133Z,90.60
2022-10-11T05:45:59.894Z,91.10
2022-10-11T05:49:02.875Z,89.89
2022-10-11T05:52:09.122Z,89.73
2022-10-11T05:55:12.130Z,89.66
2022-10-11T05:58:15.358Z,88.50
2022-10-11T06:01:24.148Z,88.02
2022-10-11T06:04:27.517Z,87.40
2022-10-11T06:07:30.221Z,86.74
2022-10-11T06:10:34.222Z,87.63
2022-10-11T06:13:37.103Z,90.08
2022-10-11T06:16:40.734Z,88.57
2022-10-11T06:19:43.535Z,87.48
2022-10-11T06:22:46.595Z,86.01
2022-10-11T06:26:07.542Z,86.78
2022-10-11T06:29:11.110Z,84.94
2022-10-11T06:32:13.965Z,84.46
2022-10-11T06:35:17.093Z,83.15
2022-10-11T06:38:20.856Z,81.78
2022-10-11T06:41:26.475Z,82.32
2022-10-11T06:44:29.513Z,81.94
2022-10-11T06:47:32.582Z,82.77
2022-10-11T06:51:00.041Z,82.11
2022-10-11T06:54:03.791Z,80.28
2022-10-11T06:57:06.492Z,80.08
2022-10-11T07:00:12.663Z,79.49
2022-10-11T07:03:15.742Z,78.59
2022-10-11T07:06:21.884Z,79.24
2022-10-11T07:09:24.635Z,76.51
2022-10-11T07:12:29.004Z,75.11
2022-10-11T07:15:31.773Z,73.99
2022-10-11T07:18:36.075Z,74.06
2022-10-11T07:21:38.974Z,74.07
2022-10-11T07:24:41.989Z,73.51
2022-10-11T07:27:44.727Z,74.06
2022-10-11T07:30:48.203Z,75.37
2022-10-11T07:33:51.226Z,75.33
2022-10-11T07:36:54.356Z,73.95
2022-10-11T07:39:57.097Z,74.46
2022-10-11T07:43:00.944Z,72.93
2022-10-11T07:46:05.166Z,73.34
2022-10-11T07:49:08.553Z,72.96
2022-10-11T07:52:11.514Z,73.71
2022-10-11T07:55:14.934Z,71.68
2022-10-11T07:58:18.006Z,71.91
2022-10-11T08:01:21.385Z,72.64
2022-10-11T08:04:24.476Z,72.44
2022-10-11T08:07:28.334Z,72.34
2022-10-11T08:10:37.656Z,70.30
2022-10-11T08:13:40.808Z,70.82
2022-10-11T08:16:43.888Z,69.73
2022-10-11T08:19:46.593Z,69.46
2022-10-11T08:22:49.603Z,68.08
2022-10-11T08:25:56.534Z,66.33
2022-10-11T08:29:02.407Z,67.50
2022-10-11T08:32:05.514Z,65.92
2022-10-11T08:35:08.986Z,63.80
2022-10-11T08:38:12.111Z,63.20
2022-10-11T08:41:24.263Z,62.46
2022-10-11T08:45:10.023Z,62.54
2022-10-11T08:48:12.908Z,62.58
2022-10-11T08:51:21.240Z,60.92
2022-10-11T08:54:44.636Z,61.87
2022-10-11T08:57:55.947Z,61.64
2022-10-11T09:00:59.590Z,63.97
2022-10-11T09:04:03.725Z,64.13
2022-10-11T09:07:28.441Z,63.28
2022-10-11T09:10:40.286Z,64.11
2022-10-11T09:14:07.599Z,65.50
2022-10-11T09:17:33.421Z,64.57
2022-10-11T09:21:00.036Z,65.41
2022-10-11T09:24:36.733Z,65.59
2022-10-11T09:28:01.777Z,64.39
2022-10-11T09:31:11.210Z,64.73
2022-10-11T09:34:16.895Z,63.54
2022-10-11T09:37:38.049Z,62.64
2022-10-11T09:41:12.802Z,59.80
2022-10-11T09:44:48.811Z,60.79
2022-10-11T09:47:54.288Z,60.32
2022-10-11T09:51:04.280Z,60.86
2022-10-11T09:54:10.600Z,61.63
2022-10-11T09:57:36.823Z,60.20
2022-10-11T10:00:39.821Z,61.22
2022-10-11T10:03:44.215Z,59.57
2022-10-11T10:06:46.949Z,61.08
2022-10-11T10:09:51.675Z,60.66
2022-10-11T10:12:55.738Z,59.98
2022-10-11T10:15:59.376Z,58.89
2022-10-11T10:19:06.837Z,60.56
2022-10-11T10:22:18.103Z,60.01
2022-10-11T10:25:32.109Z,59.08
2022-10-11T10:28:36.035Z,59.99
2022-10-11T10:32:12.902Z,59.86
2022-10-11T10:35:15.564Z,58.29
2022-10-11T10:38:48.650Z,57.48
2022-10-11T10:41:55.542Z,57.80
2022-10-11T10:44:59.567Z,58.88
2022-10-11T10:48:14.571Z,60.20
2022-10-11T10:51:44.921Z,60.69
2022-10-11T10:55:14.215Z,57.61
2022-10-11T10:58:46.032Z,58.03
2022-10-11T11:02:16.029Z,59.91
2022-10-11T11:05:41.843Z,58.74
2022-10-11T11:09:00.554Z,57.88
2022-10-11T11:12:10.784Z,56.29
2022-10-11T11:15:37.785Z,55.96
2022-10-11T11:18:49.024Z,55.23
2022-10-11T11:22:17.223Z,55.24
2022-10-11T11:25:25.359Z,54.10
2022-10-11T11:28:38.410Z,56.49
2022-10-11T11:31:44.336Z,54.37
2022-10-11T11:35:27.482Z,52.61
2022-10-11T11:38:58.001Z,53.21
2022-10-11T11:42:16.379Z,51.38
2022-10-11T11:45:24.292Z,52.99
2022-10-11T11:48:27.425Z,49.05
2022-10-11T11:51:41.200Z,46.63
2022-10-11T11:54:58.042Z,49.89
2022-10-11T11:58:23.039Z,46.52
2022-10-11T12:01:31.732Z,45.87
2022-10-11T12:04:37.212Z,45.23
2022-10-11T12:08:07.205Z,46.65
2022-10-11T12:11:26.107Z,47.81
2022-10-11T12:14:34.984Z,47.13
2022-10-11T12:17:56.139Z,45.02
2022-10-11T12:21:19.373Z,43.31
2022-10-11T12:24:26.562Z,42.52
2022-10-11T12:27:41.915Z,41.21
2022-10-11T12:30:47.026Z,42.54
2022-10-11T12:34:03.842Z,40.21
2022-10-11T12:37:20.085Z,38.97
2022-10-11T12:41:00.658Z,44.41
2022-10-11T12:44:09.872Z,43.12
2022-10-11T12:47:31.993Z,40.42
2022-10-11T12:50:50.369Z,39.82
2022-10-11T12:54:25.909Z,42.81
2022-10-11T12:57:51.765Z,46.49
2022-10-11T13:00:58.017Z,42.07
2022-10-11T13:04:08.792Z,39.11
2022-10-11T13:07:16.146Z,39.77
2022-10-11T13:10:36.885Z,38.22
2022-10-11T13:13:42.940Z,39.69
2022-10-11T13:16:51.630Z,39.50
2022-10-11T13:20:18.309Z,40.24
2022-10-11T13:23:36.011Z,39.99
2022-10-11T13:26:39.230Z,38.52
2022-10-11T13:29:44.992Z,41.59
2022-10-11T13:32:47.805Z,40.27
2022-10-11T13:35:50.997Z,38.50
2022-10-11T13:39:01.332Z,39.09
2022-10-11T13:42:10.950Z,36.95
2022-10-11T13:45:16.331Z,38.89
2022-10-11T13:48:19.345Z,37.78
2022-10-11T13:51:37.813Z,37.38
2022-10-11T13:54:58.764Z,37.86
2022-10-11T13:58:06.804Z,36.29
2022-10-11T14:01:35.660Z,35.81
2022-10-11T14:04:40.300Z,36.27
2022-10-11T14:07:43.042Z,35.11
2022-10-11T14:10:47.466Z,38.76
2022-10-11T14:13:50.121Z,36.69
2022-10-11T14:16:58.677Z,36.68
2022-10-11T14:20:19.804Z,40.18
2022-10-11T14:23:22.807Z,37.12
2022-10-11T14:26:26.221Z,35.92
2022-10-11T14:29:32.452Z,34.68
2022-10-11T14:32:36.520Z,33.81
2022-10-11T14:35:41.707Z,33.88
2022-10-11T14:38:44.434Z,35.93
2022-10-11T14:41:47.457Z,35.84
2022-10-11T14:44:50.344Z,35.73
2022-10-11T14:47:53.643Z,36.17
2022-10-11T14:50:59.199Z,36.63
2022-10-11T14:54:02.176Z,37.32
2022-10-11T14:57:05.174Z,38.25
2022-10-11T15:00:17.256Z,41.54
2022-10-11T15:03:20.106Z,37.24
2022-10-11T15:06:36.859Z,40.53
2022-10-11T15:09:39.871Z,38.44
2022-10-11T15:12:42.846Z,37.76
2022-10-11T15:15:45.605Z,39.57
2022-10-11T15:18:51.086Z,37.67
2022-10-11T15:21:53.841Z,38.27
2022-10-11T15:24:56.924Z,38.17
2022-10-11T15:28:00.841Z,39.97
2022-10-11T15:31:03.873Z,44.01
2022-10-11T15:34:07.489Z,46.98
2022-10-11T15:37:10.565Z,47.95
2022-10-11T15:40:21.301Z,50.19
2022-10-11T15:43:25.297Z,48.65
2022-10-11T15:46:28.241Z,50.49
2022-10-11T15:49:31.511Z,51.95
2022-10-11T15:52:34.239Z,53.25
2022-10-11T15:55:40.314Z,54.72
2022-10-11T15:58:43.395Z,55.56
2022-10-11T16:01:47.102Z,56.99
2022-10-11T16:04:50.151Z,58.25
2022-10-11T16:07:53.917Z,58.35
2022-10-11T16:10:57.472Z,60.02
2022-10-11T16:14:00.224Z,60.75
2022-10-11T16:17:05.622Z,61.48
2022-10-11T16:20:08.821Z,63.02
2022-10-11T16:23:12.834Z,63.49
2022-10-11T16:26:16.723Z,64.32
2022-10-11T16:29:19.735Z,65.24
2022-10-11T16:32:24.421Z,66.18
2022-10-11T16:35:32.282Z,66.06
2022-10-11T16:38:35.910Z,66.40
2022-10-11T16:41:41.940Z,67.39
2022-10-11T16:44:45.837Z,67.59
2022-10-11T16:47:48.902Z,67.27
2022-10-11T16:50:51.611Z,67.71
2022-10-11T16:53:54.645Z,67.52
2022-10-11T16:56:58.688Z,68.27
2022-10-11T17:00:01.785Z,68.76
2022-10-11T17:03:04.575Z,67.85
2022-10-11T17:06:08.609Z,68.38
2022-10-11T17:09:11.974Z,71.27
2022-10-11T17:12:17.154Z,69.47
2022-10-11T17:15:20.534Z,70.12
2022-10-11T17:18:23.552Z,70.54
2022-10-11T17:21:27.451Z,70.53
2022-10-11T17:24:30.455Z,70.96
2022-10-11T17:27:33.989Z,71.67
2022-10-11T17:30:38.120Z,71.83
2022-10-11T17:33:40.930Z,72.12
2022-10-11T17:36:44.317Z,71.64
2022-10-11T17:39:47.305Z,71.77
2022-10-11T17:42:50.825Z,72.04
2022-10-11T17:46:01.551Z,72.79
2022-10-11T17:49:06.461Z,73.13
2022-10-11T17:52:09.925Z,73.52
2022-10-11T17:55:14.846Z,73.18
2022-10-11T17:58:18.962Z,73.22
2022-10-11T18:01:24.867Z,73.98
2022-10-11T18:04:30.405Z,73.55
2022-10-11T18:07:33.349Z,73.54
2022-10-11T18:10:37.022Z,73.57
2022-10-11T18:13:46.479Z,74.12
2022-10-11T18:16:50.540Z,74.47
2022-10-11T18:19:53.839Z,74.59
2022-10-11T18:22:57.233Z,74.55
2022-10-11T18:26:00.076Z,74.90
2022-10-11T18:29:04.800Z,75.24
2022-10-11T18:32:08.500Z,75.52
2022-10-11T18:35:11.726Z,75.76
2022-10-11T18:38:15.275Z,76.25
2022-10-11T18:41:21.447Z,76.25
2022-10-11T18:44:24.926Z,76.76
2022-10-11T18:47:29.397Z,76.88
2022-10-11T18:50:35.067Z,77.05
2022-10-11T18:53:38.741Z,77.26
2022-10-11T18:56:41.706Z,77.74
2022-10-11T18:59:44.992Z,77.80
2022-10-11T19:02:47.881Z,78.05
2022-10-11T19:05:51.337Z,78.31
2022-10-11T19:08:56.735Z,78.52
2022-10-11T19:11:59.926Z,78.92
2022-10-11T19:15:03.030Z,79.35
2022-10-11T19:18:08.429Z,80.07
2022-10-11T19:21:12.984Z,80.13
2022-10-11T19:24:19.020Z,80.30
2022-10-11T19:27:22.441Z,80.22
2022-10-11T19:30:26.598Z,80.23
2022-10-11T19:33:32.185Z,81.09
2022-10-11T19:36:36.839Z,81.10
2022-10-11T19:39:41.096Z,81.04
2022-10-11T19:42:44.878Z,80.93
2022-10-11T19:45:48.329Z,81.15
2022-10-11T19:48:52.777Z,81.26
2022-10-11T19:51:57.265Z,81.39
2022-10-11T19:55:00.435Z,81.87
2022-10-11T19:58:08.163Z,82.23
2022-10-11T20:01:18.072Z,82.45
2022-10-11T20:07:44.453Z,83.38
2022-10-11T20:10:48.027Z,83.97
2022-10-11T20:13:53.672Z,84.52
2022-10-11T20:16:56.714Z,84.53
2022-10-11T20:19:59.428Z,84.46
2022-10-11T20:23:02.613Z,84.56
2022-10-11T20:26:06.667Z,84.49
2022-10-11T20:29:09.773Z,84.54
2022-10-11T20:32:13.507Z,84.63
2022-10-11T20:35:16.618Z,85.16
2022-10-11T20:38:19.399Z,85.39
2022-10-11T20:41:25.196Z,85.31
2022-10-11T20:44:28.007Z,85.34
2022-10-11T20:47:31.426Z,85.63
2022-10-11T20:50:34.973Z,86.05
2022-10-11T20:53:38.851Z,86.08
2022-10-11T20:56:41.646Z,87.10
2022-10-11T20:59:45.257Z,87.00
2022-10-11T21:02:50.666Z,87.04
2022-10-11T21:06:00.398Z,87.12
2022-10-11T21:09:03.382Z,87.07
2022-10-11T21:12:06.601Z,87.34
2022-10-11T21:15:09.441Z,87.36
2022-10-11T21:18:13.192Z,87.45
2022-10-11T21:21:15.909Z,88.51
2022-10-11T21:24:19.448Z,88.77
2022-10-11T21:27:22.129Z,88.48
2022-10-11T21:30:26.247Z,88.19
2022-10-11T21:33:30.267Z,88.21
2022-10-11T21:36:33.756Z,88.40
2022-10-11T21:39:36.516Z,88.99
2022-10-11T21:42:39.584Z,89.12
2022-10-11T21:45:42.410Z,89.33
2022-10-11T21:48:45.828Z,89.62
2022-10-11T21:51:48.586Z,89.90
2022-10-11T21:54:51.565Z,90.07
2022-10-11T21:57:55.466Z,89.75
2022-10-11T22:00:58.610Z,90.41
2022-10-11T22:04:01.648Z,90.13
2022-10-11T22:07:04.678Z,90.16
2022-10-11T22:10:08.472Z,90.05
2022-10-11T22:13:12.000Z,90.61
2022-10-11T22:16:15.638Z,90.80
2022-10-11T22:19:18.386Z,91.00
2022-10-11T22:22:21.371Z,92.83
2022-10-11T22:25:24.214Z,91.95
2022-10-11T22:28:27.259Z,91.68
2022-10-11T22:31:30.399Z,91.51
2022-10-11T22:34:33.960Z,91.22
2022-10-11T22:37:37.239Z,91.57
2022-10-11T22:40:40.466Z,92.51
2022-10-11T22:43:43.996Z,93.56
2022-10-11T22:46:47.066Z,93.07
2022-10-11T22:49:50.480Z,91.93
2022-10-11T22:52:53.466Z,91.68
2022-10-11T22:55:56.431Z,91.71
2022-10-11T22:59:00.013Z,92.38
2022-10-11T23:02:02.897Z,92.31
2022-10-11T23:05:06.025Z,91.93
2022-10-11T23:08:09.809Z,91.94
2022-10-11T23:11:12.857Z,92.87
2022-10-11T23:14:15.643Z,94.09
2022-10-11T23:17:18.920Z,92.77
2022-10-11T23:20:21.859Z,92.43
2022-10-11T23:23:25.903Z,92.73
2022-10-11T23:26:28.869Z,94.37
2022-10-11T23:29:33.196Z,94.18
2022-10-11T23:32:36.646Z,94.72
2022-10-11T23:35:39.675Z,94.37
2022-10-11T23:38:42.535Z,93.98
2022-10-11T23:41:45.569Z,93.96
2022-10-11T23:44:48.414Z,93.60
2022-10-11T23:47:51.534Z,93.87
2022-10-11T23:50:54.276Z,94.28
2022-10-11T23:53:57.455Z,94.92
2022-10-11T23:57:00.208Z,94.54
